Time;durP1;ratioP1;P1;durP2;ratioP2;P2;SDS_P1;SDS_P2;PMS_P1;PMS_P2;Temp;Humidity;BMP_temperature;BMP_pressure;BME280_temperature;BME280_humidity;BME280_pressure;Samples;Min_cycle;Max_cycle;Signal;HPM_P1;HPM_P2
2022/08/21 00:01:16;;;;;;;;;;;;;;;;;;5097360;28;19954;-24
2022/08/21 00:03:42;;;;;;;;;;;;;;;;;;5097527;28;19948;-22
2022/08/21 00:06:08;;;;;;;;;;;;;;;;;;5097524;28;19915;-23
2022/08/21 00:08:34;;;;;;;;;;;;;;;;;;5097425;28;20035;-27
2022/08/21 00:11:00;;;;;;;;;;;;;;;;;;5097425;28;19912;-23
2022/08/21 00:13:26;;;;;;;;;;;;;;;;;;5097097;28;20334;-22
2022/08/21 00:15:52;;;;;;;;;;;;;;;;;;5097361;28;19912;-22
2022/08/21 00:18:18;;;;;;;;;;;;;;;;;;5097053;28;19908;-24
2022/08/21 00:20:44;;;;;;;;;;;;;;;;;;5096965;28;19976;-24
2022/08/21 00:23:10;;;;;;;;;;;;;;;;;;5096897;28;19921;-22
2022/08/21 00:25:36;;;;;;;;;;;;;;;;;;5096923;28;20255;-23
2022/08/21 00:28:02;;;;;;;;;;;;;;;;;;5096850;28;19912;-22
2022/08/21 00:30:28;;;;;;;;;;;;;;;;;;5096953;28;19923;-26
2022/08/21 00:32:54;;;;;;;;;;;;;;;;;;5096739;28;20270;-23
2022/08/21 00:35:20;;;;;;;;;;;;;;;;;;5096904;28;19920;-23
2022/08/21 00:37:46;;;;;;;;;;;;;;;;;;5096677;28;19912;-26
2022/08/21 00:40:12;;;;;;;;;;;;;;;;;;5096617;28;20244;-23
2022/08/21 00:42:38;;;;;;;;;;;;;;;;;;5096666;28;19916;-27
2022/08/21 00:45:04;;;;;;;;;;;;;;;;;;5097287;28;20021;-23
2022/08/21 00:47:30;;;;;;;;;;;;;;;;;;5096230;28;19943;-24
2022/08/21 00:49:56;;;;;;;;;;;;;;;;;;5096641;28;20007;-25
2022/08/21 00:52:22;;;;;;;;;;;;;;;;;;5096520;28;20446;-23
2022/08/21 00:54:48;;;;;;;;;;;;;;;;;;5096874;28;19919;-23
2022/08/21 00:57:15;;;;;;;;;;;;;;;;;;5096324;28;20271;-24
2022/08/21 00:59:42;;;;;;;;;;;;;;;;;;5096498;28;20267;-22
2022/08/21 01:02:08;;;;;;;;;;;;;;;;;;5096120;28;19916;-28
2022/08/21 01:04:34;;;;;;;;;;;;;;;;;;5096121;28;19916;-23
2022/08/21 01:07:00;;;;;;;;;;;;;;;;;;5096111;28;19908;-23
2022/08/21 01:09:26;;;;;;;;;;;;;;;;;;5095924;28;19924;-23
2022/08/21 01:11:51;;;;;;;;;;;;;;;;;;5095876;28;19935;-23
2022/08/21 01:14:19;;;;;;;;;;;;;;;;;;5095940;28;19915;-24
2022/08/21 01:16:45;;;;;;;;;;;;;;;;;;5096262;28;19911;-23
2022/08/21 01:19:11;;;;;;;;;;;;;;;;;;5096219;28;20259;-23
2022/08/21 01:21:37;;;;;;;;;;;;;;;;;;5094913;28;20314;-23
2022/08/21 01:24:03;;;;;;;;;;;;;;;;;;5096018;28;19912;-23
2022/08/21 01:26:29;;;;;;;;;;;;;;;;;;5095813;28;19912;-23
2022/08/21 01:28:56;;;;;;;;;;;;;;;;;;5095697;28;19966;-23
2022/08/21 01:31:22;;;;;;;;;;;;;;;;;;5095955;28;20301;-22
2022/08/21 01:33:48;;;;;;;;;;;;;;;;;;5095854;28;19912;-23
2022/08/21 01:36:14;;;;;;;;;;;;;;;;;;5095627;28;19912;-22
2022/08/21 01:38:40;;;;;;;;;;;;;;;;;;5096173;28;20281;-22
2022/08/21 01:41:06;;;;;;;;;;;;;;;;;;5095532;28;20057;-24
2022/08/21 01:43:32;;;;;;;;;;;;;;;;;;5095744;28;19913;-22
2022/08/21 01:45:58;;;;;;;;;;;;;;;;;;5095754;28;20307;-23
2022/08/21 01:48:24;;;;;;;;;;;;;;;;;;5095287;28;19970;-23
2022/08/21 01:50:50;;;;;;;;;;;;;;;;;;5095704;28;19999;-22
2022/08/21 01:53:16;;;;;;;;;;;;;;;;;;5095470;28;20303;-24
2022/08/21 01:55:42;;;;;;;;;;;;;;;;;;5095635;28;20328;-23
2022/08/21 01:58:08;;;;;;;;;;;;;;;;;;5095362;28;19938;-22
2022/08/21 02:00:34;;;;;;;;;;;;;;;;;;5095546;28;19916;-22
2022/08/21 02:03:00;;;;;;;;;;;;;;;;;;5095242;28;20329;-23
2022/08/21 02:05:26;;;;;;;;;;;;;;;;;;5095313;28;20296;-22
2022/08/21 02:07:52;;;;;;;;;;;;;;;;;;5095570;28;19916;-22
2022/08/21 02:10:18;;;;;;;;;;;;;;;;;;5095124;28;19929;-23
2022/08/21 02:12:44;;;;;;;;;;;;;;;;;;5095128;28;19913;-25
2022/08/21 02:15:10;;;;;;;;;;;;;;;;;;5095431;28;20349;-26
2022/08/21 02:17:36;;;;;;;;;;;;;;;;;;5095410;28;19973;-22
2022/08/21 02:20:02;;;;;;;;;;;;;;;;;;5095138;28;20408;-21
2022/08/21 02:22:28;;;;;;;;;;;;;;;;;;5098186;28;19966;-22
2022/08/21 02:24:54;;;;;;;;;;;;;;;;;;5099978;28;19948;-22
2022/08/21 02:27:20;;;;;;;;;;;;;;;;;;5098226;28;19951;-23
2022/08/21 02:29:47;;;;;;;;;;;;;;;;;;5099055;28;19962;-22
2022/08/21 02:32:13;;;;;;;;;;;;;;;;;;5100100;28;19908;-26
2022/08/21 02:34:39;;;;;;;;;;;;;;;;;;5098978;28;19912;-24
2022/08/21 02:37:05;;;;;;;;;;;;;;;;;;5099013;28;19918;-22
2022/08/21 02:39:31;;;;;;;;;;;;;;;;;;5099255;28;19944;-24
2022/08/21 02:41:57;;;;;;;;;;;;;;;;;;5099168;28;19912;-23
2022/08/21 02:44:23;;;;;;;;;;;;;;;;;;5099148;28;19916;-25
2022/08/21 02:46:49;;;;;;;;;;;;;;;;;;5098803;28;19916;-22
2022/08/21 02:49:15;;;;;;;;;;;;;;;;;;5098515;28;20266;-22
2022/08/21 02:51:41;;;;;;;;;;;;;;;;;;5098746;28;20003;-22
2022/08/21 02:54:07;;;;;;;;;;;;;;;;;;5098913;28;19923;-22
2022/08/21 02:56:33;;;;;;;;;;;;;;;;;;5098911;28;20354;-22
2022/08/21 02:58:59;;;;;;;;;;;;;;;;;;5098829;28;19912;-22
2022/08/21 03:01:26;;;;;;;;;;;;;;;;;;5098501;28;19908;-22
2022/08/21 03:03:53;;;;;;;;;;;;;;;;;;5098395;28;19912;-25
2022/08/21 03:06:19;;;;;;;;;;;;;;;;;;5098703;28;19912;-22
2022/08/21 03:08:45;;;;;;;;;;;;;;;;;;5098311;28;19920;-23
2022/08/21 03:11:11;;;;;;;;;;;;;;;;;;5098640;28;19909;-23
2022/08/21 03:13:38;;;;;;;;;;;;;;;;;;5098289;28;19951;-22
2022/08/21 03:16:04;;;;;;;;;;;;;;;;;;5098242;28;19911;-27
2022/08/21 03:18:30;;;;;;;;;;;;;;;;;;5098250;28;19915;-22
2022/08/21 03:20:56;;;;;;;;;;;;;;;;;;5098152;28;19912;-23
2022/08/21 03:23:22;;;;;;;;;;;;;;;;;;5098392;28;20290;-23
2022/08/21 03:25:50;;;;;;;;;;;;;;;;;;5098076;28;19911;-23
2022/08/21 03:28:16;;;;;;;;;;;;;;;;;;5098012;28;19982;-23
2022/08/21 03:30:42;;;;;;;;;;;;;;;;;;5097895;28;19970;-24
2022/08/21 03:33:08;;;;;;;;;;;;;;;;;;5096995;28;19973;-23
2022/08/21 03:35:35;;;;;;;;;;;;;;;;;;5097921;28;19919;-22
2022/08/21 03:38:01;;;;;;;;;;;;;;;;;;5098106;28;20266;-22
2022/08/21 03:40:27;;;;;;;;;;;;;;;;;;5097732;28;19966;-24
2022/08/21 03:42:53;;;;;;;;;;;;;;;;;;5097728;28;19912;-23
2022/08/21 03:45:19;;;;;;;;;;;;;;;;;;5097998;28;20343;-22
2022/08/21 03:47:45;;;;;;;;;;;;;;;;;;5097456;28;19928;-27
2022/08/21 03:50:11;;;;;;;;;;;;;;;;;;5097820;28;19916;-22
2022/08/21 03:52:37;;;;;;;;;;;;;;;;;;5097473;28;19919;-22
2022/08/21 03:55:03;;;;;;;;;;;;;;;;;;5097778;28;20335;-22
2022/08/21 03:57:29;;;;;;;;;;;;;;;;;;5097731;28;19919;-22
2022/08/21 03:59:55;;;;;;;;;;;;;;;;;;5097367;28;20402;-21
2022/08/21 04:02:21;;;;;;;;;;;;;;;;;;5097535;28;19908;-24
2022/08/21 04:04:47;;;;;;;;;;;;;;;;;;5097581;28;19924;-22
2022/08/21 04:07:13;;;;;;;;;;;;;;;;;;5097316;28;19912;-21
2022/08/21 04:09:39;;;;;;;;;;;;;;;;;;5097226;28;19963;-22
2022/08/21 04:12:05;;;;;;;;;;;;;;;;;;5097385;28;19943;-23
2022/08/21 04:14:31;;;;;;;;;;;;;;;;;;5097461;28;19914;-22
2022/08/21 04:16:57;;;;;;;;;;;;;;;;;;5097081;28;19995;-22
2022/08/21 04:19:23;;;;;;;;;;;;;;;;;;5097305;28;19954;-22
2022/08/21 04:21:49;;;;;;;;;;;;;;;;;;5096935;28;19912;-24
2022/08/21 04:24:15;;;;;;;;;;;;;;;;;;5096922;28;19912;-23
2022/08/21 04:26:41;;;;;;;;;;;;;;;;;;5097224;28;19912;-26
2022/08/21 04:29:07;;;;;;;;;;;;;;;;;;5096739;28;19920;-22
2022/08/21 04:31:33;;;;;;;;;;;;;;;;;;5096792;28;19959;-22
2022/08/21 04:33:59;;;;;;;;;;;;;;;;;;5096678;28;19939;-22
2022/08/21 04:36:25;;;;;;;;;;;;;;;;;;5096934;28;20327;-23
2022/08/21 04:38:51;;;;;;;;;;;;;;;;;;5096675;28;20077;-23
2022/08/21 04:41:18;;;;;;;;;;;;;;;;;;5096862;28;19998;-22
2022/08/21 04:43:44;;;;;;;;;;;;;;;;;;5096435;28;20331;-22
2022/08/21 04:46:10;;;;;;;;;;;;;;;;;;5096835;28;19919;-22
2022/08/21 04:48:36;;;;;;;;;;;;;;;;;;5096197;28;19920;-23
2022/08/21 04:51:02;;;;;;;;;;;;;;;;;;5096680;28;19959;-23
2022/08/21 04:53:28;;;;;;;;;;;;;;;;;;5096391;28;20015;-22
2022/08/21 04:55:55;;;;;;;;;;;;;;;;;;5095439;28;19952;-22
2022/08/21 04:58:21;;;;;;;;;;;;;;;;;;5096310;28;19973;-25
2022/08/21 05:00:47;;;;;;;;;;;;;;;;;;5096278;28;19908;-23
2022/08/21 05:03:13;;;;;;;;;;;;;;;;;;5096131;28;19923;-22
2022/08/21 05:05:39;;;;;;;;;;;;;;;;;;5096138;28;20416;-22
2022/08/21 05:08:05;;;;;;;;;;;;;;;;;;5096437;28;19946;-24
2022/08/21 05:10:31;;;;;;;;;;;;;;;;;;5095989;28;19956;-22
2022/08/21 05:12:57;;;;;;;;;;;;;;;;;;5096250;28;19908;-22
2022/08/21 05:15:23;;;;;;;;;;;;;;;;;;5096018;28;19923;-22
2022/08/21 05:17:50;;;;;;;;;;;;;;;;;;5095948;28;19912;-22
2022/08/21 05:20:16;;;;;;;;;;;;;;;;;;5096156;28;19935;-22
2022/08/21 05:22:42;;;;;;;;;;;;;;;;;;5096127;28;19912;-23
2022/08/21 05:25:08;;;;;;;;;;;;;;;;;;5095836;28;19915;-27
2022/08/21 05:27:34;;;;;;;;;;;;;;;;;;5095750;28;19912;-22
2022/08/21 05:30:00;;;;;;;;;;;;;;;;;;5095946;28;20335;-22
2022/08/21 05:32:27;;;;;;;;;;;;;;;;;;5095614;28;19999;-23
2022/08/21 05:34:54;;;;;;;;;;;;;;;;;;5095914;28;19951;-22
2022/08/21 05:37:20;;;;;;;;;;;;;;;;;;5095929;28;19908;-24
2022/08/21 05:39:46;;;;;;;;;;;;;;;;;;5095580;28;20313;-22
2022/08/21 05:42:13;;;;;;;;;;;;;;;;;;5095702;28;20228;-24
2022/08/21 05:44:39;;;;;;;;;;;;;;;;;;5095538;28;19912;-22
2022/08/21 05:47:04;;;;;;;;;;;;;;;;;;5095571;28;19919;-22
2022/08/21 05:49:30;;;;;;;;;;;;;;;;;;5095378;28;20243;-23
2022/08/21 05:51:56;;;;;;;;;;;;;;;;;;5095358;28;19912;-22
2022/08/21 05:54:22;;;;;;;;;;;;;;;;;;5095709;28;19912;-22
2022/08/21 05:56:48;;;;;;;;;;;;;;;;;;5094936;28;20240;-24
2022/08/21 05:59:14;;;;;;;;;;;;;;;;;;5095637;28;19977;-22
2022/08/21 06:01:40;;;;;;;;;;;;;;;;;;5095338;28;20240;-23
2022/08/21 06:04:07;;;;;;;;;;;;;;;;;;5095285;28;20251;-21
2022/08/21 06:06:33;;;;;;;;;;;;;;;;;;5095212;28;19920;-22
2022/08/21 06:08:59;;;;;;;;;;;;;;;;;;5095510;28;20007;-23
2022/08/21 06:11:25;;;;;;;;;;;;;;;;;;5095267;28;19916;-22
2022/08/21 06:13:51;;;;;;;;;;;;;;;;;;5095124;28;19912;-22
2022/08/21 06:16:17;;;;;;;;;;;;;;;;;;5095440;28;19953;-25
2022/08/21 06:18:43;;;;;;;;;;;;;;;;;;5095127;28;20393;-22
2022/08/21 06:21:09;;;;;;;;;;;;;;;;;;5095121;28;19908;-22
2022/08/21 06:23:35;;;;;;;;;;;;;;;;;;5095354;28;20224;-23
2022/08/21 06:26:01;;;;;;;;;;;;;;;;;;5095066;28;19912;-23
2022/08/21 06:28:27;;;;;;;;;;;;;;;;;;5095092;28;20015;-22
2022/08/21 06:30:53;;;;;;;;;;;;;;;;;;5095294;28;20010;-22
2022/08/21 06:33:19;;;;;;;;;;;;;;;;;;5094960;28;20251;-24
2022/08/21 06:35:45;;;;;;;;;;;;;;;;;;5094991;28;20370;-23
2022/08/21 06:38:11;;;;;;;;;;;;;;;;;;5095272;28;19920;-24
2022/08/21 06:40:37;;;;;;;;;;;;;;;;;;5094999;28;19912;-22
2022/08/21 06:43:03;;;;;;;;;;;;;;;;;;5095010;28;19977;-23
2022/08/21 06:45:29;;;;;;;;;;;;;;;;;;5094971;28;20002;-23
2022/08/21 06:47:55;;;;;;;;;;;;;;;;;;5094889;28;20354;-23
2022/08/21 06:50:21;;;;;;;;;;;;;;;;;;5094855;28;19916;-22
2022/08/21 06:52:47;;;;;;;;;;;;;;;;;;5094802;28;20327;-24
2022/08/21 06:55:13;;;;;;;;;;;;;;;;;;5094818;28;19916;-22
2022/08/21 06:57:39;;;;;;;;;;;;;;;;;;5095903;28;19919;-22
2022/08/21 07:00:05;;;;;;;;;;;;;;;;;;5094768;28;19912;-22
2022/08/21 07:02:33;;;;;;;;;;;;;;;;;;5094976;28;19919;-22
2022/08/21 07:04:59;;;;;;;;;;;;;;;;;;5094741;28;19912;-22
2022/08/21 07:07:25;;;;;;;;;;;;;;;;;;5094644;28;19908;-23
2022/08/21 07:09:51;;;;;;;;;;;;;;;;;;5097757;28;19975;-22
2022/08/21 07:12:17;;;;;;;;;;;;;;;;;;5098556;28;19908;-23
2022/08/21 07:14:43;;;;;;;;;;;;;;;;;;5098383;28;19995;-22
2022/08/21 07:17:09;;;;;;;;;;;;;;;;;;5098520;28;19922;-22
2022/08/21 07:19:35;;;;;;;;;;;;;;;;;;5098455;28;19956;-25
2022/08/21 07:22:01;;;;;;;;;;;;;;;;;;5098134;28;20346;-23
2022/08/21 07:24:27;;;;;;;;;;;;;;;;;;5098404;28;20231;-23
2022/08/21 07:26:53;;;;;;;;;;;;;;;;;;5098109;28;19916;-23
2022/08/21 07:29:19;;;;;;;;;;;;;;;;;;5098219;28;19916;-22
2022/08/21 07:31:45;;;;;;;;;;;;;;;;;;5097948;28;20003;-22
2022/08/21 07:34:11;;;;;;;;;;;;;;;;;;5097901;28;19911;-21
2022/08/21 07:36:37;;;;;;;;;;;;;;;;;;5097874;28;19918;-24
2022/08/21 07:39:03;;;;;;;;;;;;;;;;;;5098119;28;19954;-22
2022/08/21 07:41:29;;;;;;;;;;;;;;;;;;5097798;28;19912;-22
2022/08/21 07:43:55;;;;;;;;;;;;;;;;;;5097707;28;19912;-21
2022/08/21 07:46:21;;;;;;;;;;;;;;;;;;5097725;28;19923;-23
2022/08/21 07:48:47;;;;;;;;;;;;;;;;;;5097371;28;19920;-22
2022/08/21 07:51:13;;;;;;;;;;;;;;;;;;5097555;28;19951;-22
2022/08/21 07:53:39;;;;;;;;;;;;;;;;;;5098585;28;19965;-22
2022/08/21 07:56:05;;;;;;;;;;;;;;;;;;5097543;28;19912;-23
2022/08/21 07:58:31;;;;;;;;;;;;;;;;;;5097801;28;19912;-23
2022/08/21 08:00:57;;;;;;;;;;;;;;;;;;5097445;28;20235;-22
2022/08/21 08:03:23;;;;;;;;;;;;;;;;;;5097345;28;20263;-22
2022/08/21 08:05:49;;;;;;;;;;;;;;;;;;5097577;28;20086;-23
2022/08/21 08:08:15;;;;;;;;;;;;;;;;;;5097319;28;20413;-22
2022/08/21 08:10:42;;;;;;;;;;;;;;;;;;5097188;28;19916;-22
2022/08/21 08:13:08;;;;;;;;;;;;;;;;;;5097097;28;19923;-22
2022/08/21 08:15:34;;;;;;;;;;;;;;;;;;5097148;28;19912;-22
2022/08/21 08:18:00;;;;;;;;;;;;;;;;;;5097439;28;20335;-23
2022/08/21 08:20:26;;;;;;;;;;;;;;;;;;5096727;28;19912;-22
2022/08/21 08:22:52;;;;;;;;;;;;;;;;;;5096952;28;19919;-22
2022/08/21 08:25:18;;;;;;;;;;;;;;;;;;5096940;28;19912;-22
2022/08/21 08:27:44;;;;;;;;;;;;;;;;;;5097192;28;19908;-23
2022/08/21 08:30:10;;;;;;;;;;;;;;;;;;5097087;28;20220;-22
2022/08/21 08:32:36;;;;;;;;;;;;;;;;;;5096812;28;19912;-22
2022/08/21 08:35:02;;;;;;;;;;;;;;;;;;5096718;28;19916;-22
2022/08/21 08:37:28;;;;;;;;;;;;;;;;;;5096795;28;19908;-22
2022/08/21 08:39:54;;;;;;;;;;;;;;;;;;5096687;28;19912;-22
2022/08/21 08:42:20;;;;;;;;;;;;;;;;;;5096570;28;20254;-22
2022/08/21 08:44:46;;;;;;;;;;;;;;;;;;5096565;28;19951;-23
2022/08/21 08:47:12;;;;;;;;;;;;;;;;;;5096621;28;19908;-23
2022/08/21 08:49:38;;;;;;;;;;;;;;;;;;5096747;28;19919;-27
2022/08/21 08:52:04;;;;;;;;;;;;;;;;;;5097076;28;20065;-23
2022/08/21 08:54:31;;;;;;;;;;;;;;;;;;5096439;28;19962;-22
2022/08/21 08:56:57;;;;;;;;;;;;;;;;;;5096294;28;19969;-23
2022/08/21 08:59:23;;;;;;;;;;;;;;;;;;5096308;28;19920;-23
2022/08/21 09:01:50;;;;;;;;;;;;;;;;;;5096442;28;20010;-22
2022/08/21 09:04:16;;;;;;;;;;;;;;;;;;5096255;28;19969;-24
2022/08/21 09:06:42;;;;;;;;;;;;;;;;;;5096452;28;19916;-23
2022/08/21 09:09:08;;;;;;;;;;;;;;;;;;5096108;28;20263;-24
2022/08/21 09:11:34;;;;;;;;;;;;;;;;;;5096382;28;19912;-23
2022/08/21 09:14:01;;;;;;;;;;;;;;;;;;5095979;28;20358;-22
2022/08/21 09:16:28;;;;;;;;;;;;;;;;;;5096235;28;19980;-21
2022/08/21 09:18:54;;;;;;;;;;;;;;;;;;5095933;28;19999;-21
2022/08/21 09:21:20;;;;;;;;;;;;;;;;;;5096216;28;19962;-21
2022/08/21 09:23:46;;;;;;;;;;;;;;;;;;5095795;28;20232;-23
2022/08/21 09:26:12;;;;;;;;;;;;;;;;;;5095875;28;19912;-22
2022/08/21 09:28:38;;;;;;;;;;;;;;;;;;5095787;28;20015;-22
2022/08/21 09:31:04;;;;;;;;;;;;;;;;;;5095092;28;20354;-24
2022/08/21 09:33:31;;;;;;;;;;;;;;;;;;5095666;28;19908;-22
2022/08/21 09:36:00;;;;;;;;;;;;;;;;;;5095688;28;20002;-22
2022/08/21 09:38:25;;;;;;;;;;;;;;;;;;5095625;28;19919;-21
2022/08/21 09:40:52;;;;;;;;;;;;;;;;;;5095620;28;20308;-22
2022/08/21 09:43:18;;;;;;;;;;;;;;;;;;5095481;28;19912;-23
2022/08/21 09:45:44;;;;;;;;;;;;;;;;;;5095795;28;19965;-22
2022/08/21 09:48:10;;;;;;;;;;;;;;;;;;5095355;28;20007;-23
2022/08/21 09:50:36;;;;;;;;;;;;;;;;;;5095319;28;20379;-22
2022/08/21 09:53:04;;;;;;;;;;;;;;;;;;5094586;28;20197;-22
2022/08/21 09:58:15;;;;;;;;;;;;;;;;;;5095419;28;19911;-22
2022/08/21 10:00:41;;;;;;;;;;;;;;;;;;5095336;28;19912;-24
2022/08/21 10:03:07;;;;;;;;;;;;;;;;;;5095541;28;19911;-24
2022/08/21 10:05:33;;;;;;;;;;;;;;;;;;5095285;28;19916;-26
2022/08/21 10:07:59;;;;;;;;;;;;;;;;;;5095252;28;20254;-22
2022/08/21 10:10:25;;;;;;;;;;;;;;;;;;5095446;28;19923;-22
2022/08/21 10:12:51;;;;;;;;;;;;;;;;;;5095414;28;20351;-23
2022/08/21 10:15:17;;;;;;;;;;;;;;;;;;5095490;28;19947;-22
2022/08/21 10:17:42;;;;;;;;;;;;;;;;;;5095151;28;19916;-22
2022/08/21 10:20:10;;;;;;;;;;;;;;;;;;5095977;28;19912;-25
2022/08/21 10:22:36;;;;;;;;;;;;;;;;;;5094101;28;19907;-23
2022/08/21 10:25:02;;;;;;;;;;;;;;;;;;5095124;28;20553;-24
2022/08/21 10:27:28;;;;;;;;;;;;;;;;;;5094181;28;20339;-22
2022/08/21 10:29:54;;;;;;;;;;;;;;;;;;5095297;28;19923;-22
2022/08/21 10:32:20;;;;;;;;;;;;;;;;;;5095254;28;19977;-22
2022/08/21 10:34:46;;;;;;;;;;;;;;;;;;5095308;28;19912;-24
2022/08/21 10:37:12;;;;;;;;;;;;;;;;;;5095009;28;20086;-23
2022/08/21 10:39:38;;;;;;;;;;;;;;;;;;5095012;28;19912;-24
2022/08/21 10:42:04;;;;;;;;;;;;;;;;;;5095637;28;19922;-22
2022/08/21 10:44:30;;;;;;;;;;;;;;;;;;5098949;28;19912;-25
2022/08/21 10:46:56;;;;;;;;;;;;;;;;;;5098846;28;19908;-22
2022/08/21 10:49:22;;;;;;;;;;;;;;;;;;5098547;28;19920;-27
2022/08/21 10:51:48;;;;;;;;;;;;;;;;;;5098773;28;19908;-23
2022/08/21 10:54:14;;;;;;;;;;;;;;;;;;5098744;28;19912;-22
2022/08/21 10:56:40;;;;;;;;;;;;;;;;;;5098682;28;19916;-22
2022/08/21 10:59:06;;;;;;;;;;;;;;;;;;5098671;28;19916;-22
2022/08/21 11:01:32;;;;;;;;;;;;;;;;;;5098615;28;19916;-22
2022/08/21 11:03:58;;;;;;;;;;;;;;;;;;5099343;28;19912;-22
2022/08/21 11:06:24;;;;;;;;;;;;;;;;;;5098783;28;19912;-22
2022/08/21 11:08:51;;;;;;;;;;;;;;;;;;5098387;28;19908;-23
2022/08/21 11:11:17;;;;;;;;;;;;;;;;;;5098340;28;19916;-24
2022/08/21 11:13:43;;;;;;;;;;;;;;;;;;5098265;28;19912;-23
2022/08/21 11:16:09;;;;;;;;;;;;;;;;;;5098873;28;20376;-23
2022/08/21 11:18:35;;;;;;;;;;;;;;;;;;5098307;28;19908;-23
2022/08/21 11:21:01;;;;;;;;;;;;;;;;;;5098521;28;19912;-22
2022/08/21 11:23:27;;;;;;;;;;;;;;;;;;5098397;28;20304;-22
2022/08/21 11:25:53;;;;;;;;;;;;;;;;;;5098450;28;19973;-22
2022/08/21 11:28:19;;;;;;;;;;;;;;;;;;5098883;28;19916;-22
2022/08/21 11:30:45;;;;;;;;;;;;;;;;;;5098300;28;19912;-22
2022/08/21 11:33:11;;;;;;;;;;;;;;;;;;5097931;28;19912;-25
2022/08/21 11:35:37;;;;;;;;;;;;;;;;;;5097944;28;19919;-22
2022/08/21 11:38:03;;;;;;;;;;;;;;;;;;5097875;28;19998;-24
2022/08/21 11:40:29;;;;;;;;;;;;;;;;;;5098113;28;19916;-23
2022/08/21 11:42:55;;;;;;;;;;;;;;;;;;5097734;28;20343;-24
2022/08/21 11:45:21;;;;;;;;;;;;;;;;;;5098011;28;19951;-25
2022/08/21 11:47:47;;;;;;;;;;;;;;;;;;5097470;28;19924;-23
2022/08/21 11:50:13;;;;;;;;;;;;;;;;;;5097855;28;19920;-23
2022/08/21 11:52:39;;;;;;;;;;;;;;;;;;5097582;28;19908;-24
2022/08/21 11:55:05;;;;;;;;;;;;;;;;;;5097146;28;19912;-26
2022/08/21 11:57:31;;;;;;;;;;;;;;;;;;5097537;28;19908;-25
2022/08/21 11:59:57;;;;;;;;;;;;;;;;;;5097768;28;19943;-22
2022/08/21 12:02:23;;;;;;;;;;;;;;;;;;5097581;28;19923;-23
2022/08/21 12:04:49;;;;;;;;;;;;;;;;;;5097437;28;19973;-23
2022/08/21 12:07:15;;;;;;;;;;;;;;;;;;5097325;28;19961;-25
2022/08/21 12:09:41;;;;;;;;;;;;;;;;;;5097533;28;19920;-24
2022/08/21 12:12:07;;;;;;;;;;;;;;;;;;5097482;28;21625;-26
2022/08/21 12:14:33;;;;;;;;;;;;;;;;;;5097238;28;20273;-24
2022/08/21 12:16:59;;;;;;;;;;;;;;;;;;5097152;28;19961;-23
2022/08/21 12:19:25;;;;;;;;;;;;;;;;;;5097094;28;19955;-22
2022/08/21 12:21:51;;;;;;;;;;;;;;;;;;5097031;28;19908;-22
2022/08/21 12:24:17;;;;;;;;;;;;;;;;;;5097313;28;20373;-23
2022/08/21 12:26:43;;;;;;;;;;;;;;;;;;5097004;28;19912;-23
2022/08/21 12:29:09;;;;;;;;;;;;;;;;;;5097114;28;20232;-23
2022/08/21 12:31:35;;;;;;;;;;;;;;;;;;5096923;28;20007;-23
2022/08/21 12:34:02;;;;;;;;;;;;;;;;;;5096784;28;19920;-26
2022/08/21 12:36:28;;;;;;;;;;;;;;;;;;5097057;28;19912;-24
2022/08/21 12:38:54;;;;;;;;;;;;;;;;;;5096709;28;20400;-23
2022/08/21 12:41:20;;;;;;;;;;;;;;;;;;5096960;28;20223;-23
2022/08/21 12:43:46;;;;;;;;;;;;;;;;;;5096903;28;19916;-22
2022/08/21 12:46:13;;;;;;;;;;;;;;;;;;5096873;28;19918;-22
2022/08/21 12:48:39;;;;;;;;;;;;;;;;;;5096437;28;19920;-23
2022/08/21 12:51:05;;;;;;;;;;;;;;;;;;5096430;28;19958;-23
2022/08/21 12:53:31;;;;;;;;;;;;;;;;;;5096668;28;19912;-24
2022/08/21 12:55:59;;;;;;;;;;;;;;;;;;5096686;28;19919;-24
2022/08/21 12:58:25;;;;;;;;;;;;;;;;;;5096308;28;19912;-22
2022/08/21 13:00:51;;;;;;;;;;;;;;;;;;5096584;28;20058;-23
2022/08/21 13:03:17;;;;;;;;;;;;;;;;;;5096483;28;19945;-22
2022/08/21 13:05:43;;;;;;;;;;;;;;;;;;5095328;28;19943;-22
2022/08/21 13:08:09;;;;;;;;;;;;;;;;;;5096424;28;19948;-22
2022/08/21 13:10:35;;;;;;;;;;;;;;;;;;5096322;28;19999;-22
2022/08/21 13:13:01;;;;;;;;;;;;;;;;;;5095106;28;20354;-22
2022/08/21 13:15:27;;;;;;;;;;;;;;;;;;5096352;28;19923;-22
2022/08/21 13:17:53;;;;;;;;;;;;;;;;;;5095992;28;19916;-23
2022/08/21 13:20:19;;;;;;;;;;;;;;;;;;5095973;28;20254;-22
2022/08/21 13:22:46;;;;;;;;;;;;;;;;;;5095866;28;19977;-23
2022/08/21 13:25:12;;;;;;;;;;;;;;;;;;5095877;28;19919;-23
2022/08/21 13:27:38;;;;;;;;;;;;;;;;;;5096077;28;19908;-24
2022/08/21 13:30:04;;;;;;;;;;;;;;;;;;5095712;28;19993;-26
2022/08/21 13:32:31;;;;;;;;;;;;;;;;;;5095681;28;19987;-23
2022/08/21 13:34:57;;;;;;;;;;;;;;;;;;5096518;28;19924;-26
2022/08/21 13:37:23;;;;;;;;;;;;;;;;;;5095985;28;19912;-23
2022/08/21 13:39:50;;;;;;;;;;;;;;;;;;5095651;28;19965;-23
2022/08/21 13:42:16;;;;;;;;;;;;;;;;;;5095815;28;19969;-24
2022/08/21 13:44:42;;;;;;;;;;;;;;;;;;5095568;28;19911;-23
2022/08/21 13:47:08;;;;;;;;;;;;;;;;;;5095336;28;19934;-23
2022/08/21 13:49:34;;;;;;;;;;;;;;;;;;5095729;28;19916;-24
2022/08/21 13:52:00;;;;;;;;;;;;;;;;;;5095395;28;19915;-23
2022/08/21 13:54:26;;;;;;;;;;;;;;;;;;5095430;28;19908;-23
2022/08/21 13:56:52;;;;;;;;;;;;;;;;;;5095373;28;19920;-23
2022/08/21 13:59:18;;;;;;;;;;;;;;;;;;5095400;28;19994;-22
2022/08/21 14:01:44;;;;;;;;;;;;;;;;;;5095353;28;19958;-22
2022/08/21 14:04:10;;;;;;;;;;;;;;;;;;5095528;28;19908;-23
2022/08/21 14:06:36;;;;;;;;;;;;;;;;;;5095304;28;20006;-22
2022/08/21 14:09:02;;;;;;;;;;;;;;;;;;5095779;28;19912;-25
2022/08/21 14:11:30;;;;;;;;;;;;;;;;;;5095299;28;19915;-24
2022/08/21 14:13:56;;;;;;;;;;;;;;;;;;5094242;28;20426;-23
2022/08/21 14:16:22;;;;;;;;;;;;;;;;;;5095225;28;19916;-25
2022/08/21 14:18:48;;;;;;;;;;;;;;;;;;5097805;28;19912;-24
2022/08/21 14:21:15;;;;;;;;;;;;;;;;;;5099442;28;20232;-25
2022/08/21 14:23:42;;;;;;;;;;;;;;;;;;5099223;28;19912;-24
2022/08/21 14:26:08;;;;;;;;;;;;;;;;;;5099611;28;19916;-24
2022/08/21 14:28:35;;;;;;;;;;;;;;;;;;5099299;28;19919;-27
2022/08/21 14:31:01;;;;;;;;;;;;;;;;;;5099422;28;20247;-23
2022/08/21 14:33:27;;;;;;;;;;;;;;;;;;5099219;28;20289;-26
2022/08/21 14:35:53;;;;;;;;;;;;;;;;;;5099063;28;19919;-24
2022/08/21 14:38:19;;;;;;;;;;;;;;;;;;5099095;28;19909;-22
2022/08/21 14:40:45;;;;;;;;;;;;;;;;;;5099030;28;20339;-23
2022/08/21 14:43:11;;;;;;;;;;;;;;;;;;5099053;28;19913;-27
2022/08/21 14:45:40;;;;;;;;;;;;;;;;;;5098961;28;19908;-22
2022/08/21 14:48:06;;;;;;;;;;;;;;;;;;5098708;28;19920;-22
2022/08/21 14:50:32;;;;;;;;;;;;;;;;;;5098789;28;19916;-23
2022/08/21 14:52:58;;;;;;;;;;;;;;;;;;5098719;28;20002;-23
2022/08/21 14:55:24;;;;;;;;;;;;;;;;;;5098742;28;20006;-22
2022/08/21 14:57:50;;;;;;;;;;;;;;;;;;5098725;28;20018;-25
2022/08/21 15:00:16;;;;;;;;;;;;;;;;;;5098639;28;19912;-22
2022/08/21 15:02:42;;;;;;;;;;;;;;;;;;5098777;28;19908;-22
2022/08/21 15:05:08;;;;;;;;;;;;;;;;;;5098572;28;19931;-22
2022/08/21 15:07:34;;;;;;;;;;;;;;;;;;5098579;28;20335;-22
2022/08/21 15:10:01;;;;;;;;;;;;;;;;;;5098414;28;20018;-23
2022/08/21 15:12:27;;;;;;;;;;;;;;;;;;5098315;28;20366;-23
2022/08/21 15:14:53;;;;;;;;;;;;;;;;;;5098379;28;20251;-22
2022/08/21 15:17:19;;;;;;;;;;;;;;;;;;5098304;28;19908;-22
2022/08/21 15:19:45;;;;;;;;;;;;;;;;;;5098834;28;19920;-22
2022/08/21 15:22:11;;;;;;;;;;;;;;;;;;5098448;28;19908;-24
2022/08/21 15:24:37;;;;;;;;;;;;;;;;;;5098471;28;20289;-23
2022/08/21 15:27:03;;;;;;;;;;;;;;;;;;5098145;28;19912;-24
2022/08/21 15:29:29;;;;;;;;;;;;;;;;;;5096943;28;20255;-27
2022/08/21 15:31:55;;;;;;;;;;;;;;;;;;5098045;28;20229;-25
2022/08/21 15:34:21;;;;;;;;;;;;;;;;;;5098243;28;20010;-23
2022/08/21 15:36:47;;;;;;;;;;;;;;;;;;5097943;28;19915;-24
2022/08/21 15:39:13;;;;;;;;;;;;;;;;;;5097927;28;20117;-24
2022/08/21 15:41:39;;;;;;;;;;;;;;;;;;5098163;28;19919;-23
2022/08/21 15:44:05;;;;;;;;;;;;;;;;;;5097755;28;20287;-22
2022/08/21 15:46:31;;;;;;;;;;;;;;;;;;5097778;28;19908;-25
2022/08/21 15:48:57;;;;;;;;;;;;;;;;;;5097500;28;20014;-23
2022/08/21 15:51:23;;;;;;;;;;;;;;;;;;5097943;28;19912;-22
2022/08/21 15:53:49;;;;;;;;;;;;;;;;;;5097839;28;19923;-23
2022/08/21 15:56:15;;;;;;;;;;;;;;;;;;5097611;28;19908;-23
2022/08/21 15:58:41;;;;;;;;;;;;;;;;;;5097790;28;19920;-23
2022/08/21 16:01:07;;;;;;;;;;;;;;;;;;5097515;28;19908;-25
2022/08/21 16:03:33;;;;;;;;;;;;;;;;;;5097406;28;20073;-23
2022/08/21 16:05:59;;;;;;;;;;;;;;;;;;5097493;28;20003;-23
2022/08/21 16:08:25;;;;;;;;;;;;;;;;;;5097382;28;20436;-23
2022/08/21 16:10:51;;;;;;;;;;;;;;;;;;5097552;28;20006;-22
2022/08/21 16:13:17;;;;;;;;;;;;;;;;;;5097200;28;20339;-25
2022/08/21 16:15:43;;;;;;;;;;;;;;;;;;5098095;28;19912;-22
2022/08/21 16:18:09;;;;;;;;;;;;;;;;;;5097181;28;20392;-23
2022/08/21 16:20:35;;;;;;;;;;;;;;;;;;5097168;28;19969;-22
2022/08/21 16:23:01;;;;;;;;;;;;;;;;;;5097023;28;19912;-22
2022/08/21 16:25:27;;;;;;;;;;;;;;;;;;5097290;28;20301;-25
2022/08/21 16:27:53;;;;;;;;;;;;;;;;;;5097274;28;19916;-22
2022/08/21 16:30:19;;;;;;;;;;;;;;;;;;5096856;28;20015;-27
2022/08/21 16:32:45;;;;;;;;;;;;;;;;;;5096792;28;19943;-23
2022/08/21 16:35:12;;;;;;;;;;;;;;;;;;5097088;28;20338;-23
2022/08/21 16:37:38;;;;;;;;;;;;;;;;;;5096774;28;19916;-22
2022/08/21 16:40:04;;;;;;;;;;;;;;;;;;5096451;28;19923;-22